Time;durP1;ratioP1;P1;durP2;ratioP2;P2;SDS_P1;SDS_P2;PMS_P1;PMS_P2;Temp;Humidity;BMP_temperature;BMP_pressure;BME280_temperature;BME280_humidity;BME280_pressure;Samples;Min_cycle;Max_cycle;Signal;HPM_P1;HPM_P2
2022/11/29 00:00:17;;;;;;;;;;;2.40;99.90;;;;;;2622018;46;19942;31
2022/11/29 00:02:57;;;;;;;;;;;2.40;99.90;;;;;;2603533;54;19989;31
2022/11/29 00:05:32;;;;;;;;;;;2.40;99.90;;;;;;2603576;54;20788;31
2022/11/29 00:08:06;;;;;;;;;;;2.40;99.90;;;;;;2621844;46;19935;31
2022/11/29 00:10:40;;;;;;;;;;;2.40;99.90;;;;;;2621976;46;19941;31
2022/11/29 00:13:15;;;;;;;;;;;2.40;99.90;;;;;;2622005;46;19943;31
2022/11/29 00:15:48;;;;;;;;;;;2.40;99.90;;;;;;2603648;54;19939;31
2022/11/29 00:18:27;;;;;;;;;;;2.40;99.90;;;;;;2622117;46;19934;31
2022/11/29 00:21:02;;;;;;;;;;;2.30;99.90;;;;;;2621988;46;19943;31
2022/11/29 00:23:36;;;;;;;;;;;2.30;99.90;;;;;;2603522;54;20760;31
2022/11/29 00:26:12;;;;;;;;;;;2.30;99.90;;;;;;2603364;54;19935;31
2022/11/29 00:28:46;;;;;;;;;;;2.40;99.90;;;;;;2602353;54;19942;31
2022/11/29 00:31:20;;;;;;;;;;;2.30;99.90;;;;;;2622011;46;20728;31
2022/11/29 00:33:57;;;;;;;;;;;2.30;99.90;;;;;;2621738;46;20001;31
2022/11/29 00:36:31;;;;;;;;;;;2.30;99.90;;;;;;2603249;54;19941;31
2022/11/29 00:39:06;;;;;;;;;;;2.30;99.90;;;;;;2603378;54;20021;31
2022/11/29 00:41:39;;;;;;;;;;;2.30;99.90;;;;;;2622057;46;20474;31
2022/11/29 00:44:12;;;;;;;;;;;2.30;99.90;;;;;;2603223;54;20700;31
2022/11/29 00:46:53;;;;;;;;;;;2.30;99.90;;;;;;2621741;46;20778;31
2022/11/29 00:49:32;;;;;;;;;;;2.30;99.90;;;;;;2603129;54;20792;31
2022/11/29 00:52:06;;;;;;;;;;;2.30;99.90;;;;;;2603373;54;19950;31
2022/11/29 00:54:41;;;;;;;;;;;2.30;99.90;;;;;;2603299;54;19950;31
2022/11/29 00:57:15;;;;;;;;;;;2.30;99.90;;;;;;2701972;39;20343;31
2022/11/29 00:59:50;;;;;;;;;;;2.30;99.90;;;;;;2620747;47;19938;31
2022/11/29 01:02:23;;;;;;;;;;;2.30;99.90;;;;;;2621724;47;20742;31
2022/11/29 01:05:04;;;;;;;;;;;2.30;99.90;;;;;;2621678;47;19961;31
2022/11/29 01:07:37;;;;;;;;;;;2.30;99.90;;;;;;2603267;54;20735;31
2022/11/29 01:10:11;;;;;;;;;;;2.30;99.90;;;;;;2603349;54;19954;31
2022/11/29 01:12:46;;;;;;;;;;;2.30;99.90;;;;;;2603205;54;19954;31
2022/11/29 01:15:21;;;;;;;;;;;2.30;99.90;;;;;;2622110;47;19935;31
2022/11/29 01:17:55;;;;;;;;;;;2.30;99.90;;;;;;2603133;54;19939;31
2022/11/29 01:20:32;;;;;;;;;;;2.20;99.90;;;;;;2701949;39;20381;31
2022/11/29 01:23:07;;;;;;;;;;;2.20;99.90;;;;;;2603226;54;19941;31
2022/11/29 01:25:42;;;;;;;;;;;2.20;99.90;;;;;;2603355;54;20789;31
2022/11/29 01:28:19;;;;;;;;;;;2.20;99.90;;;;;;2603251;54;20776;31
2022/11/29 01:30:53;;;;;;;;;;;2.20;99.90;;;;;;2603189;54;20693;31
2022/11/29 01:33:28;;;;;;;;;;;2.20;99.90;;;;;;2603007;54;19942;31
2022/11/29 01:36:05;;;;;;;;;;;2.20;99.90;;;;;;2603320;54;21277;31
2022/11/29 01:38:41;;;;;;;;;;;2.20;99.90;;;;;;2621592;47;19950;31
2022/11/29 01:41:15;;;;;;;;;;;2.20;99.90;;;;;;2603783;54;19989;31
2022/11/29 01:43:55;;;;;;;;;;;2.20;99.90;;;;;;2604204;54;19942;31
2022/11/29 01:49:02;;;;;;;;;;;2.20;99.90;;;;;;2622649;46;19961;31
2022/11/29 01:51:40;;;;;;;;;;;2.10;99.90;;;;;;2622724;46;19941;31
2022/11/29 01:54:15;;;;;;;;;;;2.20;99.90;;;;;;2604168;54;19938;31
2022/11/29 01:56:49;;;;;;;;;;;2.10;99.90;;;;;;2604059;54;19935;31
2022/11/29 01:59:23;;;;;;;;;;;2.10;99.90;;;;;;2603713;54;19938;31
2022/11/29 02:02:02;;;;;;;;;;;2.10;99.90;;;;;;2604012;54;19935;31
2022/11/29 02:04:36;;;;;;;;;;;2.10;99.90;;;;;;2622248;46;19934;31
2022/11/29 02:07:13;;;;;;;;;;;2.00;99.90;;;;;;2622850;46;19957;31
2022/11/29 02:09:48;;;;;;;;;;;2.00;99.90;;;;;;2603742;54;19939;31
2022/11/29 02:12:23;;;;;;;;;;;2.10;99.90;;;;;;2603890;54;20667;31
2022/11/29 02:15:04;;;;;;;;;;;2.10;99.90;;;;;;2621918;46;20015;31
2022/11/29 02:17:42;;;;;;;;;;;2.10;99.90;;;;;;2603916;54;19983;31
2022/11/29 02:20:31;;;;;;;;;;;3.10;99.90;;;;;;2604124;54;19941;31
2022/11/29 02:23:05;;;;;;;;;;;2.10;99.90;;;;;;2622591;46;19934;31
2022/11/29 02:25:46;;;;;;;;;;;2.10;99.90;;;;;;2604002;54;20740;31
2022/11/29 02:28:35;;;;;;;;;;;2.10;99.90;;;;;;2603931;54;19934;31
2022/11/29 02:31:24;;;;;;;;;;;3.00;99.90;;;;;;2603925;54;20025;31
2022/11/29 02:34:13;;;;;;;;;;;2.10;99.90;;;;;;2622209;46;19935;31
2022/11/29 02:36:56;;;;;;;;;;;2.10;99.90;;;;;;2622111;46;19941;31
2022/11/29 02:39:44;;;;;;;;;;;2.10;99.90;;;;;;2603859;54;19941;31
2022/11/29 02:42:23;;;;;;;;;;;2.10;99.90;;;;;;2622482;46;19941;31
2022/11/29 02:45:11;;;;;;;;;;;2.20;99.90;;;;;;2603574;54;19942;31
2022/11/29 02:47:49;;;;;;;;;;;2.20;99.90;;;;;;2603566;54;21486;31
2022/11/29 02:50:30;;;;;;;;;;;2.20;99.90;;;;;;2603770;54;19942;31
2022/11/29 02:53:08;;;;;;;;;;;2.20;99.90;;;;;;2622134;46;19986;31
2022/11/29 02:55:43;;;;;;;;;;;2.20;99.90;;;;;;2614716;46;19942;31
2022/11/29 02:58:19;;;;;;;;;;;2.20;99.90;;;;;;2622222;46;21446;31
2022/11/29 03:00:57;;;;;;;;;;;2.20;99.90;;;;;;2622374;46;19941;31
2022/11/29 03:03:34;;;;;;;;;;;2.20;99.90;;;;;;2622134;46;19985;31
2022/11/29 03:06:10;;;;;;;;;;;2.20;99.90;;;;;;2622058;46;19934;31
2022/11/29 03:08:47;;;;;;;;;;;2.20;99.90;;;;;;2622167;46;19934;31
2022/11/29 03:11:22;;;;;;;;;;;2.20;99.90;;;;;;2603573;54;19934;31
2022/11/29 03:13:58;;;;;;;;;;;2.20;99.90;;;;;;2621953;46;19934;31
2022/11/29 03:16:37;;;;;;;;;;;2.20;99.90;;;;;;2622166;46;19941;31
2022/11/29 03:19:22;;;;;;;;;;;2.20;99.90;;;;;;2603532;54;19935;31
2022/11/29 03:21:58;;;;;;;;;;;2.20;99.90;;;;;;2603855;54;19954;31
2022/11/29 03:24:37;;;;;;;;;;;2.20;99.90;;;;;;2622311;46;19935;31
2022/11/29 03:27:13;;;;;;;;;;;2.20;99.90;;;;;;2603434;54;19941;31
2022/11/29 03:29:47;;;;;;;;;;;2.20;99.90;;;;;;2610105;39;20947;31
2022/11/29 03:32:23;;;;;;;;;;;2.20;99.90;;;;;;2603691;54;20819;31
2022/11/29 03:34:58;;;;;;;;;;;2.20;99.90;;;;;;2603468;54;20800;31
2022/11/29 03:37:33;;;;;;;;;;;2.20;99.90;;;;;;2603513;54;20576;31
2022/11/29 03:40:11;;;;;;;;;;;2.20;99.90;;;;;;2622134;46;19993;31
2022/11/29 03:42:45;;;;;;;;;;;2.20;99.90;;;;;;2603949;54;19957;31
2022/11/29 03:45:20;;;;;;;;;;;2.30;99.90;;;;;;2622032;46;20442;31
2022/11/29 03:47:59;;;;;;;;;;;2.30;99.90;;;;;;2603719;54;19935;31
2022/11/29 03:50:34;;;;;;;;;;;2.30;99.90;;;;;;2621805;46;19938;31
2022/11/29 03:53:11;;;;;;;;;;;2.30;99.90;;;;;;2618285;46;20719;31
2022/11/29 03:55:52;;;;;;;;;;;2.30;99.90;;;;;;2603285;54;19977;31
2022/11/29 03:58:45;;;;;;;;;;;2.30;99.90;;;;;;2621684;46;20770;31
2022/11/29 04:01:37;;;;;;;;;;;2.30;99.90;;;;;;2603536;54;19935;31
2022/11/29 04:04:15;;;;;;;;;;;2.30;99.90;;;;;;2603007;54;20478;31
2022/11/29 04:06:54;;;;;;;;;;;2.30;99.90;;;;;;2701960;39;20475;31
2022/11/29 04:12:13;;;;;;;;;;;2.30;99.90;;;;;;2603515;54;19935;31
2022/11/29 04:14:56;;;;;;;;;;;2.30;99.90;;;;;;2603290;54;19982;31
2022/11/29 04:17:51;;;;;;;;;;;2.30;99.90;;;;;;2603639;54;19938;31
2022/11/29 04:20:40;;;;;;;;;;;2.30;99.90;;;;;;2603389;54;20711;31
2022/11/29 04:23:35;;;;;;;;;;;2.30;99.90;;;;;;2603547;54;20024;31
2022/11/29 04:26:24;;;;;;;;;;;2.40;99.90;;;;;;2622145;46;19946;31
2022/11/29 04:29:02;;;;;;;;;;;2.40;99.90;;;;;;2621711;46;19962;31
2022/11/29 04:31:40;;;;;;;;;;;2.40;99.90;;;;;;2621856;46;19941;31
2022/11/29 04:34:24;;;;;;;;;;;2.40;99.90;;;;;;2621733;46;20780;31
2022/11/29 04:37:15;;;;;;;;;;;2.30;99.90;;;;;;2603436;54;20752;31
2022/11/29 04:39:51;;;;;;;;;;;2.40;99.90;;;;;;2603625;54;19958;31
2022/11/29 04:42:40;;;;;;;;;;;2.40;99.90;;;;;;2617911;46;20772;31
2022/11/29 04:45:29;;;;;;;;;;;2.40;99.90;;;;;;2603509;54;20462;31
2022/11/29 04:48:11;;;;;;;;;;;2.40;99.90;;;;;;2603506;54;19935;31
2022/11/29 04:50:47;;;;;;;;;;;2.40;99.90;;;;;;2603675;54;19938;31
2022/11/29 04:53:37;;;;;;;;;;;2.40;99.90;;;;;;2773363;31;20492;31
2022/11/29 04:56:13;;;;;;;;;;;2.40;99.90;;;;;;2603196;54;20001;31
2022/11/29 04:58:49;;;;;;;;;;;2.40;99.90;;;;;;2621585;47;19942;31
2022/11/29 05:01:25;;;;;;;;;;;2.50;99.90;;;;;;2603446;54;20741;31
2022/11/29 05:04:03;;;;;;;;;;;2.50;99.90;;;;;;2622051;47;19941;31
2022/11/29 05:06:39;;;;;;;;;;;2.50;99.90;;;;;;2603259;54;19986;31
2022/11/29 05:09:16;;;;;;;;;;;2.50;99.90;;;;;;2603254;54;20785;31
2022/11/29 05:11:52;;;;;;;;;;;2.50;99.90;;;;;;2603230;54;19978;31
2022/11/29 05:14:29;;;;;;;;;;;2.50;99.90;;;;;;2622362;47;20767;31
2022/11/29 05:17:03;;;;;;;;;;;2.50;99.90;;;;;;2604011;54;19947;31
2022/11/29 05:19:39;;;;;;;;;;;2.50;99.90;;;;;;2604155;54;20008;31
2022/11/29 05:22:21;;;;;;;;;;;2.50;99.90;;;;;;2603966;54;20757;31
2022/11/29 05:24:57;;;;;;;;;;;2.50;99.90;;;;;;2622822;46;19935;31
2022/11/29 05:27:36;;;;;;;;;;;2.50;99.90;;;;;;2603889;54;20711;31
2022/11/29 05:30:11;;;;;;;;;;;2.50;99.90;;;;;;2604235;54;19934;31
2022/11/29 05:32:49;;;;;;;;;;;2.50;99.90;;;;;;2604035;54;19956;31
2022/11/29 05:35:29;;;;;;;;;;;2.50;99.90;;;;;;2622610;46;20677;31
2022/11/29 05:38:05;;;;;;;;;;;2.40;99.90;;;;;;2622515;46;19961;31
2022/11/29 05:40:46;;;;;;;;;;;2.40;99.90;;;;;;2622191;46;19935;31
2022/11/29 05:43:32;;;;;;;;;;;2.40;99.90;;;;;;2604000;54;20731;31
2022/11/29 05:46:06;;;;;;;;;;;2.40;99.90;;;;;;2604010;54;19935;31
2022/11/29 05:48:44;;;;;;;;;;;2.40;99.90;;;;;;2603919;54;19938;31
2022/11/29 05:51:20;;;;;;;;;;;2.40;99.90;;;;;;2622635;46;20746;31
2022/11/29 05:53:57;;;;;;;;;;;2.40;99.90;;;;;;2702769;39;20924;31
2022/11/29 05:56:31;;;;;;;;;;;2.40;99.90;;;;;;2603672;54;20009;31
2022/11/29 05:59:06;;;;;;;;;;;2.40;99.90;;;;;;2603994;54;19931;31
2022/11/29 06:01:42;;;;;;;;;;;2.40;99.90;;;;;;2603880;54;20794;31
2022/11/29 06:04:18;;;;;;;;;;;2.40;99.90;;;;;;2603822;54;20730;31
2022/11/29 06:06:55;;;;;;;;;;;2.40;99.90;;;;;;2603917;54;20560;31
2022/11/29 06:09:36;;;;;;;;;;;2.40;99.90;;;;;;2604190;54;19938;31
2022/11/29 06:12:12;;;;;;;;;;;2.40;99.90;;;;;;2603167;54;19942;31
2022/11/29 06:14:59;;;;;;;;;;;3.10;99.90;;;;;;2622623;46;20732;31
2022/11/29 06:17:48;;;;;;;;;;;2.50;99.90;;;;;;2605355;46;19950;31
2022/11/29 06:20:38;;;;;;;;;;;2.50;99.90;;;;;;2605945;46;19943;31
2022/11/29 06:23:27;;;;;;;;;;;2.50;99.90;;;;;;2607254;46;19990;31
2022/11/29 06:26:08;;;;;;;;;;;2.50;99.90;;;;;;2603869;54;19934;31
2022/11/29 06:28:43;;;;;;;;;;;2.50;99.90;;;;;;2702486;39;21085;31
2022/11/29 06:31:18;;;;;;;;;;;2.50;99.90;;;;;;2603861;54;19935;31
2022/11/29 06:33:55;;;;;;;;;;;2.50;99.90;;;;;;2604088;54;20470;31
2022/11/29 06:36:29;;;;;;;;;;;2.50;99.90;;;;;;2622211;46;19955;31
2022/11/29 06:39:04;;;;;;;;;;;2.50;99.90;;;;;;2603649;54;19942;31
2022/11/29 06:41:42;;;;;;;;;;;2.60;99.90;;;;;;2622217;46;19993;31
2022/11/29 06:44:18;;;;;;;;;;;2.60;99.90;;;;;;2603868;54;19962;31
2022/11/29 06:46:51;;;;;;;;;;;2.60;99.90;;;;;;2622471;46;20489;31
2022/11/29 06:49:27;;;;;;;;;;;2.60;99.90;;;;;;2616462;46;20469;31
2022/11/29 06:52:04;;;;;;;;;;;2.60;99.90;;;;;;2622112;46;20556;31
2022/11/29 06:54:52;;;;;;;;;;;2.70;99.90;;;;;;2603561;54;20759;31
2022/11/29 06:57:31;;;;;;;;;;;2.70;99.90;;;;;;2603712;54;20742;31
2022/11/29 07:00:10;;;;;;;;;;;2.70;99.90;;;;;;2603835;54;19935;31
2022/11/29 07:02:57;;;;;;;;;;;3.50;99.90;;;;;;2603520;54;19944;31
2022/11/29 07:05:32;;;;;;;;;;;2.70;99.90;;;;;;2706488;39;20487;31
2022/11/29 07:08:07;;;;;;;;;;;2.70;99.90;;;;;;2603273;54;20796;31
2022/11/29 07:10:41;;;;;;;;;;;2.80;99.90;;;;;;2603839;54;19994;31
2022/11/29 07:13:20;;;;;;;;;;;2.80;99.90;;;;;;2603791;54;20698;31
2022/11/29 07:15:57;;;;;;;;;;;2.80;99.90;;;;;;2603726;54;20737;31
2022/11/29 07:18:30;;;;;;;;;;;2.80;99.90;;;;;;2603769;54;20671;31
2022/11/29 07:21:05;;;;;;;;;;;2.80;99.90;;;;;;2603578;54;20728;31
2022/11/29 07:23:41;;;;;;;;;;;2.90;99.90;;;;;;2622420;46;19944;31
2022/11/29 07:26:20;;;;;;;;;;;2.90;99.90;;;;;;2603836;54;19934;31
2022/11/29 07:29:01;;;;;;;;;;;2.90;99.90;;;;;;2603870;54;19993;31
2022/11/29 07:31:39;;;;;;;;;;;2.90;99.90;;;;;;2603523;54;19945;31
2022/11/29 07:34:14;;;;;;;;;;;2.90;99.90;;;;;;2603583;54;19954;31
2022/11/29 07:36:51;;;;;;;;;;;3.00;99.90;;;;;;2603513;54;19991;31
2022/11/29 07:39:26;;;;;;;;;;;3.00;99.90;;;;;;2603546;54;20742;31
2022/11/29 07:42:02;;;;;;;;;;;3.00;99.90;;;;;;2603917;54;19941;31
2022/11/29 07:44:40;;;;;;;;;;;3.10;99.90;;;;;;2603351;54;20779;31
2022/11/29 07:47:14;;;;;;;;;;;3.10;99.90;;;;;;2603716;54;19935;31
2022/11/29 07:49:48;;;;;;;;;;;3.10;99.90;;;;;;2603352;54;20014;31
2022/11/29 07:52:23;;;;;;;;;;;3.10;99.90;;;;;;2603379;54;19934;31
2022/11/29 07:54:56;;;;;;;;;;;3.10;99.90;;;;;;2603776;54;20820;31
2022/11/29 07:57:32;;;;;;;;;;;3.20;99.90;;;;;;2603425;54;19942;31
2022/11/29 08:00:09;;;;;;;;;;;3.20;99.90;;;;;;2622284;46;20745;31
2022/11/29 08:02:47;;;;;;;;;;;3.20;99.90;;;;;;2621991;46;19935;31
2022/11/29 08:05:24;;;;;;;;;;;3.20;99.90;;;;;;2622213;46;19962;31
2022/11/29 08:07:59;;;;;;;;;;;3.30;99.90;;;;;;2604627;46;20821;31
2022/11/29 08:10:33;;;;;;;;;;;3.30;99.90;;;;;;2603662;54;19956;31
2022/11/29 08:13:07;;;;;;;;;;;3.40;99.90;;;;;;2603445;54;20750;31
2022/11/29 08:15:51;;;;;;;;;;;3.40;99.90;;;;;;2603601;54;19935;31
2022/11/29 08:18:25;;;;;;;;;;;3.40;99.90;;;;;;2603329;54;20775;31
2022/11/29 08:20:59;;;;;;;;;;;3.50;99.90;;;;;;2603332;54;20776;31
2022/11/29 08:23:35;;;;;;;;;;;3.50;99.90;;;;;;2603171;54;19938;31
2022/11/29 08:26:09;;;;;;;;;;;3.50;99.90;;;;;;2603342;54;19990;31
2022/11/29 08:28:42;;;;;;;;;;;3.50;99.90;;;;;;2701848;39;20468;31
2022/11/29 08:31:19;;;;;;;;;;;3.60;99.90;;;;;;2603242;54;19946;31
2022/11/29 08:33:54;;;;;;;;;;;3.60;99.90;;;;;;2603615;54;20722;31
2022/11/29 08:36:28;;;;;;;;;;;3.60;99.90;;;;;;2603294;54;20755;31
2022/11/29 08:39:04;;;;;;;;;;;3.60;99.90;;;;;;2602935;54;20576;31
2022/11/29 08:41:42;;;;;;;;;;;3.60;99.90;;;;;;2603481;54;20801;31
2022/11/29 08:44:15;;;;;;;;;;;3.60;99.90;;;;;;2621860;46;19950;31
2022/11/29 08:50:00;;;;;;;;;;;3.70;99.90;;;;;;2621919;46;19942;31
2022/11/29 08:55:21;;;;;;;;;;;3.70;99.90;;;;;;2701940;39;20468;31
2022/11/29 08:57:55;;;;;;;;;;;3.80;99.90;;;;;;2621849;47;20732;31
2022/11/29 09:00:30;;;;;;;;;;;3.80;99.90;;;;;;2701653;39;20473;31
2022/11/29 09:05:52;;;;;;;;;;;3.80;99.90;;;;;;2621870;47;20771;31
2022/11/29 09:08:28;;;;;;;;;;;3.80;99.90;;;;;;2621886;47;19942;31
2022/11/29 09:11:03;;;;;;;;;;;3.90;99.90;;;;;;2603405;54;20751;31
2022/11/29 09:13:39;;;;;;;;;;;3.90;99.90;;;;;;2622003;47;19961;31
2022/11/29 09:16:16;;;;;;;;;;;3.90;99.90;;;;;;2621724;47;19935;31
2022/11/29 09:18:54;;;;;;;;;;;3.90;99.90;;;;;;2603150;54;19935;31
2022/11/29 09:21:29;;;;;;;;;;;3.90;99.90;;;;;;2602520;54;19942;31
2022/11/29 09:24:05;;;;;;;;;;;3.90;99.90;;;;;;2603166;54;19957;31
2022/11/29 09:26:41;;;;;;;;;;;3.90;99.90;;;;;;2603274;54;19961;31
2022/11/29 09:29:15;;;;;;;;;;;3.90;99.90;;;;;;2621830;47;19942;31
2022/11/29 09:31:48;;;;;;;;;;;4.00;99.90;;;;;;2621589;47;20026;31
2022/11/29 09:34:26;;;;;;;;;;;4.00;99.90;;;;;;2603049;54;20771;31
2022/11/29 09:37:00;;;;;;;;;;;4.00;99.90;;;;;;2602547;54;19957;31
2022/11/29 09:39:35;;;;;;;;;;;4.00;99.90;;;;;;2603071;54;20442;31
2022/11/29 09:42:27;;;;;;;;;;;4.00;99.90;;;;;;2603306;54;20731;31
2022/11/29 09:45:04;;;;;;;;;;;4.10;99.90;;;;;;2603041;54;21444;31
2022/11/29 09:47:53;;;;;;;;;;;4.10;99.90;;;;;;2603182;54;20469;31
2022/11/29 09:50:27;;;;;;;;;;;4.10;99.90;;;;;;2603119;54;20048;31
2022/11/29 09:53:14;;;;;;;;;;;4.10;99.90;;;;;;2621458;47;20066;31
2022/11/29 09:55:51;;;;;;;;;;;4.20;99.90;;;;;;2621340;47;20773;31
2022/11/29 09:58:25;;;;;;;;;;;4.20;99.90;;;;;;2621408;47;20794;31
2022/11/29 10:01:01;;;;;;;;;;;4.20;99.90;;;;;;2603214;54;20470;31
2022/11/29 10:03:36;;;;;;;;;;;4.20;99.90;;;;;;2721104;39;21394;31
2022/11/29 10:06:10;;;;;;;;;;;4.30;99.90;;;;;;2603892;54;20747;31
2022/11/29 10:08:49;;;;;;;;;;;4.30;99.90;;;;;;2622135;46;19939;31
2022/11/29 10:11:23;;;;;;;;;;;4.30;99.90;;;;;;2622067;46;20787;31
2022/11/29 10:13:58;;;;;;;;;;;4.30;99.90;;;;;;2603740;54;19941;31
2022/11/29 10:16:37;;;;;;;;;;;4.30;99.90;;;;;;2604021;54;19934;31
2022/11/29 10:19:14;;;;;;;;;;;4.30;99.90;;;;;;2603983;54;20821;31
2022/11/29 10:21:50;;;;;;;;;;;4.30;99.90;;;;;;2702509;39;20386;31
2022/11/29 10:24:25;;;;;;;;;;;4.40;99.90;;;;;;2603797;54;19960;31
2022/11/29 10:27:00;;;;;;;;;;;4.40;99.90;;;;;;2604017;54;20788;31
2022/11/29 10:29:34;;;;;;;;;;;4.40;99.90;;;;;;2720899;39;20374;31
2022/11/29 10:32:08;;;;;;;;;;;4.50;99.90;;;;;;2622103;46;20733;31
2022/11/29 10:34:41;;;;;;;;;;;4.50;99.90;;;;;;2603704;54;22245;31
2022/11/29 10:37:16;;;;;;;;;;;4.50;99.90;;;;;;2622284;46;19941;31
2022/11/29 10:39:56;;;;;;;;;;;4.60;99.90;;;;;;2619318;46;19942;31
2022/11/29 10:45:24;;;;;;;;;;;4.60;99.90;;;;;;2603716;54;20785;31
2022/11/29 10:48:00;;;;;;;;;;;4.60;99.90;;;;;;2622184;46;19967;31
2022/11/29 10:50:37;;;;;;;;;;;4.70;99.90;;;;;;2603666;54;20785;31
2022/11/29 10:53:15;;;;;;;;;;;4.70;99.90;;;;;;2603746;54;20768;31
2022/11/29 10:55:52;;;;;;;;;;;4.70;99.90;;;;;;2603611;54;20783;31
2022/11/29 10:58:27;;;;;;;;;;;4.70;99.90;;;;;;2702104;39;21013;31
2022/11/29 11:01:05;;;;;;;;;;;4.70;99.90;;;;;;2603729;54;19941;31
2022/11/29 11:03:40;;;;;;;;;;;4.70;99.90;;;;;;2603771;54;19943;31
2022/11/29 11:06:16;;;;;;;;;;;4.70;99.90;;;;;;2622080;46;19959;31
2022/11/29 11:08:52;;;;;;;;;;;4.70;99.90;;;;;;2603717;54;19990;31
2022/11/29 11:11:29;;;;;;;;;;;4.70;99.90;;;;;;2603565;54;20787;31
2022/11/29 11:14:04;;;;;;;;;;;4.80;99.90;;;;;;2773744;31;20547;31
2022/11/29 11:16:36;;;;;;;;;;;4.80;99.90;;;;;;2603547;54;19934;31
2022/11/29 11:19:23;;;;;;;;;;;4.80;99.90;;;;;;2621765;46;20805;31
2022/11/29 11:21:57;;;;;;;;;;;4.80;99.90;;;;;;2603761;54;19941;31
2022/11/29 11:24:31;;;;;;;;;;;4.90;99.90;;;;;;2603554;54;19943;31
2022/11/29 11:27:07;;;;;;;;;;;4.90;99.90;;;;;;2603716;54;19934;31
2022/11/29 11:29:42;;;;;;;;;;;4.90;99.90;;;;;;2603468;54;20808;31
2022/11/29 11:32:17;;;;;;;;;;;4.90;99.90;;;;;;2622109;46;20025;31
2022/11/29 11:34:55;;;;;;;;;;;5.00;99.90;;;;;;2622170;46;19942;31
2022/11/29 11:37:30;;;;;;;;;;;5.00;99.90;;;;;;2603624;54;20789;31
2022/11/29 11:40:20;;;;;;;;;;;5.00;99.90;;;;;;2622053;46;19986;31
2022/11/29 11:42:58;;;;;;;;;;;5.00;99.90;;;;;;2622276;46;19961;31
2022/11/29 11:45:33;;;;;;;;;;;5.10;99.90;;;;;;2603490;54;19934;31
2022/11/29 11:48:13;;;;;;;;;;;5.10;99.90;;;;;;2603767;54;19993;31
2022/11/29 11:50:48;;;;;;;;;;;5.10;99.90;;;;;;2622017;46;19942;31
2022/11/29 11:53:23;;;;;;;;;;;5.10;99.90;;;;;;2603500;54;19934;31
2022/11/29 11:55:59;;;;;;;;;;;5.30;99.90;;;;;;2622003;46;19935;31
2022/11/29 11:58:38;;;;;;;;;;;5.10;99.90;;;;;;2603426;54;20021;31
2022/11/29 12:01:18;;;;;;;;;;;5.10;99.90;;;;;;2621930;46;20021;31
2022/11/29 12:03:52;;;;;;;;;;;5.10;99.90;;;;;;2622000;46;19942;31
2022/11/29 12:06:41;;;;;;;;;;;5.20;99.90;;;;;;2603531;54;20009;31
2022/11/29 12:09:18;;;;;;;;;;;5.20;99.90;;;;;;2603556;54;19934;31
2022/11/29 12:11:55;;;;;;;;;;;5.20;99.90;;;;;;2603659;54;19939;31
2022/11/29 12:14:34;;;;;;;;;;;5.30;99.90;;;;;;2608406;46;19935;31
2022/11/29 12:17:12;;;;;;;;;;;5.30;99.90;;;;;;2603278;54;19942;31
2022/11/29 12:20:03;;;;;;;;;;;5.50;99.90;;;;;;2603522;54;20800;31
2022/11/29 12:22:39;;;;;;;;;;;5.30;99.90;;;;;;2621940;46;19934;31
2022/11/29 12:25:21;;;;;;;;;;;5.30;99.90;;;;;;2603448;54;19954;31
2022/11/29 12:27:56;;;;;;;;;;;5.40;99.90;;;;;;2603479;54;20003;31
2022/11/29 12:30:34;;;;;;;;;;;5.40;99.90;;;;;;2603691;54;20716;31
2022/11/29 12:33:14;;;;;;;;;;;5.40;99.90;;;;;;2603438;54;20805;31
2022/11/29 12:36:02;;;;;;;;;;;5.50;99.90;;;;;;2603337;54;20802;31
2022/11/29 12:38:44;;;;;;;;;;;5.50;99.90;;;;;;2603405;54;19993;31
2022/11/29 12:41:21;;;;;;;;;;;5.60;99.90;;;;;;2604153;46;19939;31
2022/11/29 12:44:02;;;;;;;;;;;5.60;99.90;;;;;;2603158;54;19959;31
2022/11/29 12:46:40;;;;;;;;;;;5.70;99.90;;;;;;2621949;46;19941;31
2022/11/29 12:49:15;;;;;;;;;;;5.70;99.90;;;;;;2603493;54;19942;31
2022/11/29 12:51:51;;;;;;;;;;;5.70;99.90;;;;;;2621665;47;19993;31
2022/11/29 12:54:28;;;;;;;;;;;5.80;99.90;;;;;;2603187;54;20754;31
2022/11/29 12:57:04;;;;;;;;;;;5.80;99.90;;;;;;2602915;54;19946;31
2022/11/29 12:59:42;;;;;;;;;;;5.80;99.90;;;;;;2603116;54;19998;31
2022/11/29 13:02:22;;;;;;;;;;;5.80;99.90;;;;;;2621895;47;20779;31
2022/11/29 13:04:59;;;;;;;;;;;5.80;99.90;;;;;;2621789;47;19935;31
2022/11/29 13:07:37;;;;;;;;;;;5.80;99.90;;;;;;2621370;47;20001;31
2022/11/29 13:10:27;;;;;;;;;;;5.80;99.90;;;;;;2621741;47;19950;31
2022/11/29 13:13:02;;;;;;;;;;;5.80;99.90;;;;;;2621403;47;19935;31
2022/11/29 13:15:39;;;;;;;;;;;5.80;99.90;;;;;;2603172;54;19942;31
2022/11/29 13:18:16;;;;;;;;;;;5.80;99.90;;;;;;2603246;54;19989;31
2022/11/29 13:20:51;;;;;;;;;;;5.80;99.90;;;;;;2603014;54;20616;31
2022/11/29 13:23:24;;;;;;;;;;;5.80;99.90;;;;;;2603098;54;22273;31
2022/11/29 13:26:20;;;;;;;;;;;5.80;99.90;;;;;;2603370;54;19950;31
2022/11/29 13:28:55;;;;;;;;;;;5.80;99.90;;;;;;2603377;54;19942;31
2022/11/29 13:31:31;;;;;;;;;;;5.80;99.90;;;;;;2621519;47;20516;31
2022/11/29 13:34:09;;;;;;;;;;;5.80;99.90;;;;;;2701782;39;21387;31
2022/11/29 13:36:46;;;;;;;;;;;5.80;99.90;;;;;;2603801;54;19942;31
2022/11/29 13:39:28;;;;;;;;;;;5.80;99.90;;;;;;2603937;54;20013;31
2022/11/29 13:42:05;;;;;;;;;;;5.80;99.90;;;;;;2622107;46;20805;31
2022/11/29 13:44:38;;;;;;;;;;;5.80;99.90;;;;;;2603576;54;19950;31
2022/11/29 13:47:13;;;;;;;;;;;5.80;99.90;;;;;;2621709;46;20780;31
2022/11/29 13:50:07;;;;;;;;;;;5.80;99.90;;;;;;2603782;54;19943;31
2022/11/29 13:52:46;;;;;;;;;;;5.80;99.90;;;;;;2622424;46;19977;31
2022/11/29 13:55:27;;;;;;;;;;;5.80;99.90;;;;;;2604027;54;20046;31
2022/11/29 13:58:05;;;;;;;;;;;5.80;99.90;;;;;;2603695;54;20866;31
2022/11/29 14:00:57;;;;;;;;;;;5.80;99.90;;;;;;2603827;54;19962;31
2022/11/29 14:03:32;;;;;;;;;;;5.80;99.90;;;;;;2622440;46;20687;31
2022/11/29 14:06:11;;;;;;;;;;;5.80;99.90;;;;;;2603661;54;20750;31
2022/11/29 14:09:09;;;;;;;;;;;5.80;99.90;;;;;;2603636;54;19935;31
2022/11/29 14:11:53;;;;;;;;;;;5.80;99.90;;;;;;2603819;54;20502;31
2022/11/29 14:14:28;;;;;;;;;;;5.80;99.90;;;;;;2720835;39;20341;31
2022/11/29 14:17:03;;;;;;;;;;;5.80;99.90;;;;;;2720721;39;20400;31
2022/11/29 14:19:41;;;;;;;;;;;5.80;99.90;;;;;;2603906;54;19989;31
2022/11/29 14:22:21;;;;;;;;;;;5.80;99.90;;;;;;2603708;54;19942;31
2022/11/29 14:25:09;;;;;;;;;;;5.70;99.90;;;;;;2622449;46;20555;31
2022/11/29 14:28:08;;;;;;;;;;;5.70;99.90;;;;;;2603844;54;19934;31
2022/11/29 14:31:00;;;;;;;;;;;5.70;99.90;;;;;;2603651;54;19965;31
2022/11/29 14:33:51;;;;;;;;;;;5.70;99.90;;;;;;2603821;54;20792;31
2022/11/29 14:36:35;;;;;;;;;;;5.70;99.90;;;;;;2603906;54;19965;31
2022/11/29 14:39:26;;;;;;;;;;;5.70;99.90;;;;;;2603693;54;20784;31
2022/11/29 14:42:09;;;;;;;;;;;5.70;99.90;;;;;;2622509;46;19956;31
2022/11/29 14:44:46;;;;;;;;;;;5.60;99.90;;;;;;2603687;54;20779;31
2022/11/29 14:47:23;;;;;;;;;;;5.60;99.90;;;;;;2603722;54;20058;31
2022/11/29 14:50:00;;;;;;;;;;;5.60;99.90;;;;;;2622287;46;20806;31
2022/11/29 14:52:33;;;;;;;;;;;5.60;99.90;;;;;;2603865;54;19934;31
2022/11/29 14:55:09;;;;;;;;;;;5.60;99.90;;;;;;2622711;46;19961;31
2022/11/29 14:57:58;;;;;;;;;;;5.60;99.90;;;;;;2603613;54;20810;31
2022/11/29 15:00:37;;;;;;;;;;;5.60;99.90;;;;;;2603501;54;20013;31
2022/11/29 15:03:12;;;;;;;;;;;5.60;99.90;;;;;;2603667;54;20385;31
2022/11/29 15:05:49;;;;;;;;;;;5.60;99.90;;;;;;2603677;54;19935;31
2022/11/29 15:08:27;;;;;;;;;;;5.60;99.90;;;;;;2702296;39;20431;31
2022/11/29 15:11:01;;;;;;;;;;;5.50;99.90;;;;;;2702436;39;20369;31
2022/11/29 15:13:36;;;;;;;;;;;5.60;99.90;;;;;;2622214;46;20744;31
2022/11/29 15:16:16;;;;;;;;;;;5.50;99.90;;;;;;2603679;54;20817;31
2022/11/29 15:19:05;;;;;;;;;;;5.50;99.90;;;;;;2702438;39;20389;31
2022/11/29 15:21:44;;;;;;;;;;;5.50;99.90;;;;;;2603531;54;19993;31
2022/11/29 15:24:19;;;;;;;;;;;5.40;99.90;;;;;;2621885;46;19934;31
2022/11/29 15:27:03;;;;;;;;;;;5.40;99.90;;;;;;2603694;54;19941;31
2022/11/29 15:29:37;;;;;;;;;;;5.40;99.90;;;;;;2621991;46;20808;31
2022/11/29 15:32:10;;;;;;;;;;;5.30;99.90;;;;;;2622205;46;20783;31
2022/11/29 15:34:44;;;;;;;;;;;5.20;99.90;;;;;;2603047;54;22321;31
2022/11/29 15:37:43;;;;;;;;;;;5.20;99.90;;;;;;2622193;46;19939;31
2022/11/29 15:40:19;;;;;;;;;;;5.20;99.90;;;;;;2621940;46;19941;31
2022/11/29 15:42:53;;;;;;;;;;;5.10;99.90;;;;;;2603458;54;20726;31
2022/11/29 15:45:29;;;;;;;;;;;5.00;99.90;;;;;;2603507;54;21401;31
2022/11/29 15:48:14;;;;;;;;;;;5.00;99.90;;;;;;2602679;54;19950;31
2022/11/29 15:51:01;;;;;;;;;;;5.00;99.90;;;;;;2622199;46;20759;31
2022/11/29 15:53:39;;;;;;;;;;;4.90;99.90;;;;;;2603453;54;19934;31
2022/11/29 15:56:16;;;;;;;;;;;4.90;99.90;;;;;;2622073;46;19942;31
2022/11/29 15:58:55;;;;;;;;;;;4.90;99.90;;;;;;2603269;54;20720;31
2022/11/29 16:01:53;;;;;;;;;;;4.90;99.90;;;;;;2603550;54;19934;31
2022/11/29 16:04:34;;;;;;;;;;;4.80;99.90;;;;;;2619466;46;19942;31